sensor_id;sensor_type;location;lat;lon;timestamp;temperature;humidity
25188;DHT22;13141;50.414;8.050;2023-11-19T00:00:22;9.20;99.90
25188;DHT22;13141;50.414;8.050;2023-11-19T00:02:48;9.20;99.90
25188;DHT22;13141;50.414;8.050;2023-11-19T00:05:13;9.20;99.90
25188;DHT22;13141;50.414;8.050;2023-11-19T00:07:39;9.10;99.90
25188;DHT22;13141;50.414;8.050;2023-11-19T00:10:08;9.10;99.90
25188;DHT22;13141;50.414;8.050;2023-11-19T00:12:34;9.10;99.90
25188;DHT22;13141;50.414;8.050;2023-11-19T00:15:00;9.00;99.90
25188;DHT22;13141;50.414;8.050;2023-11-19T00:17:25;9.00;99.90
25188;DHT22;13141;50.414;8.050;2023-11-19T00:19:51;9.10;99.90
25188;DHT22;13141;50.414;8.050;2023-11-19T00:22:17;9.10;99.90
25188;DHT22;13141;50.414;8.050;2023-11-19T00:24:42;9.20;99.90
25188;DHT22;13141;50.414;8.050;2023-11-19T00:27:09;9.20;99.90
25188;DHT22;13141;50.414;8.050;2023-11-19T00:29:35;9.20;99.90
25188;DHT22;13141;50.414;8.050;2023-11-19T00:32:01;9.30;99.90
25188;DHT22;13141;50.414;8.050;2023-11-19T00:34:27;9.40;99.90
25188;DHT22;13141;50.414;8.050;2023-11-19T00:36:52;9.30;99.90
25188;DHT22;13141;50.414;8.050;2023-11-19T00:39:18;9.30;99.90
25188;DHT22;13141;50.414;8.050;2023-11-19T00:41:43;9.30;99.90
25188;DHT22;13141;50.414;8.050;2023-11-19T00:44:10;9.30;99.90
25188;DHT22;13141;50.414;8.050;2023-11-19T00:46:36;9.30;99.90
25188;DHT22;13141;50.414;8.050;2023-11-19T00:49:01;9.30;99.90
25188;DHT22;13141;50.414;8.050;2023-11-19T00:51:27;9.40;99.90
25188;DHT22;13141;50.414;8.050;2023-11-19T00:53:53;9.30;99.90
25188;DHT22;13141;50.414;8.050;2023-11-19T00:56:19;9.30;99.90
25188;DHT22;13141;50.414;8.050;2023-11-19T00:58:44;9.40;99.90
25188;DHT22;13141;50.414;8.050;2023-11-19T01:01:12;9.40;99.90
25188;DHT22;13141;50.414;8.050;2023-11-19T01:03:38;9.40;99.90
25188;DHT22;13141;50.414;8.050;2023-11-19T01:06:04;9.40;99.90
25188;DHT22;13141;50.414;8.050;2023-11-19T01:08:30;9.30;99.90
25188;DHT22;13141;50.414;8.050;2023-11-19T01:10:56;9.30;99.90
25188;DHT22;13141;50.414;8.050;2023-11-19T01:13:21;9.40;99.90
25188;DHT22;13141;50.414;8.050;2023-11-19T01:15:47;9.30;99.90
25188;DHT22;13141;50.414;8.050;2023-11-19T01:18:14;9.30;99.90
25188;DHT22;13141;50.414;8.050;2023-11-19T01:20:40;9.30;99.90
25188;DHT22;13141;50.414;8.050;2023-11-19T01:23:05;9.40;99.90
25188;DHT22;13141;50.414;8.050;2023-11-19T01:25:31;9.40;99.90
25188;DHT22;13141;50.414;8.050;2023-11-19T01:27:56;9.40;99.90
25188;DHT22;13141;50.414;8.050;2023-11-19T01:30:22;9.40;99.90
25188;DHT22;13141;50.414;8.050;2023-11-19T01:32:48;9.40;99.90
25188;DHT22;13141;50.414;8.050;2023-11-19T01:35:15;9.40;99.90
25188;DHT22;13141;50.414;8.050;2023-11-19T01:37:41;9.40;99.90
25188;DHT22;13141;50.414;8.050;2023-11-19T01:40:07;9.40;99.90
25188;DHT22;13141;50.414;8.050;2023-11-19T01:42:36;9.50;99.90
25188;DHT22;13141;50.414;8.050;2023-11-19T01:45:02;9.50;99.90
25188;DHT22;13141;50.414;8.050;2023-11-19T01:47:28;9.50;99.90
25188;DHT22;13141;50.414;8.050;2023-11-19T01:49:56;9.40;99.90
25188;DHT22;13141;50.414;8.050;2023-11-19T01:52:23;9.40;99.90
25188;DHT22;13141;50.414;8.050;2023-11-19T01:54:51;9.40;99.90
25188;DHT22;13141;50.414;8.050;2023-11-19T01:57:18;9.40;99.90
25188;DHT22;13141;50.414;8.050;2023-11-19T01:59:44;9.40;99.90
25188;DHT22;13141;50.414;8.050;2023-11-19T02:02:09;9.40;99.90
25188;DHT22;13141;50.414;8.050;2023-11-19T02:04:35;9.30;99.90
25188;DHT22;13141;50.414;8.050;2023-11-19T02:07:01;9.40;99.90
25188;DHT22;13141;50.414;8.050;2023-11-19T02:09:28;9.40;99.90
25188;DHT22;13141;50.414;8.050;2023-11-19T02:11:55;9.40;99.90
25188;DHT22;13141;50.414;8.050;2023-11-19T02:14:23;9.50;99.90
25188;DHT22;13141;50.414;8.050;2023-11-19T02:16:50;9.50;99.90
25188;DHT22;13141;50.414;8.050;2023-11-19T02:19:16;9.50;99.90
25188;DHT22;13141;50.414;8.050;2023-11-19T02:21:44;9.50;99.90
25188;DHT22;13141;50.414;8.050;2023-11-19T02:24:11;9.60;99.90
25188;DHT22;13141;50.414;8.050;2023-11-19T02:26:45;9.50;99.90
25188;DHT22;13141;50.414;8.050;2023-11-19T02:29:13;9.50;99.90
25188;DHT22;13141;50.414;8.050;2023-11-19T02:31:39;9.50;99.90
25188;DHT22;13141;50.414;8.050;2023-11-19T02:34:05;9.50;99.90
25188;DHT22;13141;50.414;8.050;2023-11-19T02:36:30;9.50;99.90
25188;DHT22;13141;50.414;8.050;2023-11-19T02:38:56;9.70;99.90
25188;DHT22;13141;50.414;8.050;2023-11-19T02:41:22;9.60;99.90
25188;DHT22;13141;50.414;8.050;2023-11-19T02:43:47;9.60;99.90
25188;DHT22;13141;50.414;8.050;2023-11-19T02:46:14;9.60;99.90
25188;DHT22;13141;50.414;8.050;2023-11-19T02:48:40;9.60;99.90
25188;DHT22;13141;50.414;8.050;2023-11-19T02:51:06;9.60;99.90
25188;DHT22;13141;50.414;8.050;2023-11-19T02:53:32;9.70;99.90
25188;DHT22;13141;50.414;8.050;2023-11-19T02:55:58;9.60;99.90
25188;DHT22;13141;50.414;8.050;2023-11-19T02:58:23;9.60;99.90
25188;DHT22;13141;50.414;8.050;2023-11-19T03:00:49;9.60;99.90
25188;DHT22;13141;50.414;8.050;2023-11-19T03:03:16;9.60;99.90
25188;DHT22;13141;50.414;8.050;2023-11-19T03:05:42;9.60;99.90
25188;DHT22;13141;50.414;8.050;2023-11-19T03:08:07;9.60;99.90
25188;DHT22;13141;50.414;8.050;2023-11-19T03:10:33;9.80;99.90
25188;DHT22;13141;50.414;8.050;2023-11-19T03:12:59;9.60;99.90
25188;DHT22;13141;50.414;8.050;2023-11-19T03:15:24;9.60;99.90
25188;DHT22;13141;50.414;8.050;2023-11-19T03:17:50;9.70;99.90
25188;DHT22;13141;50.414;8.050;2023-11-19T03:20:17;9.70;99.90
25188;DHT22;13141;50.414;8.050;2023-11-19T03:22:43;9.70;99.90
25188;DHT22;13141;50.414;8.050;2023-11-19T03:25:08;9.70;99.90
25188;DHT22;13141;50.414;8.050;2023-11-19T03:27:34;9.70;99.90
25188;DHT22;13141;50.414;8.050;2023-11-19T03:30:00;9.80;99.90
25188;DHT22;13141;50.414;8.050;2023-11-19T03:32:26;9.80;99.90
25188;DHT22;13141;50.414;8.050;2023-11-19T03:34:51;9.80;99.90
25188;DHT22;13141;50.414;8.050;2023-11-19T03:37:18;9.80;99.90
25188;DHT22;13141;50.414;8.050;2023-11-19T03:39:44;9.90;99.90
25188;DHT22;13141;50.414;8.050;2023-11-19T03:42:10;9.90;99.90
25188;DHT22;13141;50.414;8.050;2023-11-19T03:44:35;10.00;99.90
25188;DHT22;13141;50.414;8.050;2023-11-19T03:47:01;10.00;99.90
25188;DHT22;13141;50.414;8.050;2023-11-19T03:49:26;10.10;99.90
25188;DHT22;13141;50.414;8.050;2023-11-19T03:51:52;10.10;99.90
25188;DHT22;13141;50.414;8.050;2023-11-19T03:54:19;10.20;99.90
25188;DHT22;13141;50.414;8.050;2023-11-19T03:56:45;10.20;99.90
25188;DHT22;13141;50.414;8.050;2023-11-19T03:59:10;10.20;99.90
25188;DHT22;13141;50.414;8.050;2023-11-19T04:01:36;10.20;99.90
25188;DHT22;13141;50.414;8.050;2023-11-19T04:04:02;10.10;99.90
25188;DHT22;13141;50.414;8.050;2023-11-19T04:06:28;10.10;99.90
25188;DHT22;13141;50.414;8.050;2023-11-19T04:08:53;10.20;99.90
25188;DHT22;13141;50.414;8.050;2023-11-19T04:11:20;10.20;99.90
25188;DHT22;13141;50.414;8.050;2023-11-19T04:13:46;10.30;99.90
25188;DHT22;13141;50.414;8.050;2023-11-19T04:16:11;10.30;99.90
25188;DHT22;13141;50.414;8.050;2023-11-19T04:18:37;10.50;99.90
25188;DHT22;13141;50.414;8.050;2023-11-19T04:21:06;10.50;99.90
25188;DHT22;13141;50.414;8.050;2023-11-19T04:23:31;10.50;99.90
25188;DHT22;13141;50.414;8.050;2023-11-19T04:25:57;10.60;99.90
25188;DHT22;13141;50.414;8.050;2023-11-19T04:28:24;10.60;99.90
25188;DHT22;13141;50.414;8.050;2023-11-19T04:30:50;10.70;99.90
25188;DHT22;13141;50.414;8.050;2023-11-19T04:33:15;10.70;99.90
25188;DHT22;13141;50.414;8.050;2023-11-19T04:35:41;10.70;99.90
25188;DHT22;13141;50.414;8.050;2023-11-19T04:38:07;10.70;99.90
25188;DHT22;13141;50.414;8.050;2023-11-19T04:40:32;10.70;99.90
25188;DHT22;13141;50.414;8.050;2023-11-19T04:42:58;10.80;99.90
25188;DHT22;13141;50.414;8.050;2023-11-19T04:45:25;10.80;99.90
25188;DHT22;13141;50.414;8.050;2023-11-19T04:47:50;10.80;99.90
25188;DHT22;13141;50.414;8.050;2023-11-19T04:50:16;10.80;99.90
25188;DHT22;13141;50.414;8.050;2023-11-19T04:52:42;10.90;99.90
25188;DHT22;13141;50.414;8.050;2023-11-19T04:55:08;10.90;99.90
25188;DHT22;13141;50.414;8.050;2023-11-19T04:57:33;11.10;99.90
25188;DHT22;13141;50.414;8.050;2023-11-19T04:59:59;10.90;99.90
25188;DHT22;13141;50.414;8.050;2023-11-19T05:02:28;10.90;99.90
25188;DHT22;13141;50.414;8.050;2023-11-19T05:04:54;11.00;99.90
25188;DHT22;13141;50.414;8.050;2023-11-19T05:07:20;11.00;99.90
25188;DHT22;13141;50.414;8.050;2023-11-19T05:09:46;11.00;99.90
25188;DHT22;13141;50.414;8.050;2023-11-19T05:12:11;11.00;99.90
25188;DHT22;13141;50.414;8.050;2023-11-19T05:14:37;11.00;99.90
25188;DHT22;13141;50.414;8.050;2023-11-19T05:17:03;10.90;99.90
25188;DHT22;13141;50.414;8.050;2023-11-19T05:19:30;11.00;99.90
25188;DHT22;13141;50.414;8.050;2023-11-19T05:21:56;11.10;99.90
25188;DHT22;13141;50.414;8.050;2023-11-19T05:24:21;11.10;99.90
25188;DHT22;13141;50.414;8.050;2023-11-19T05:26:47;11.10;99.90
25188;DHT22;13141;50.414;8.050;2023-11-19T05:29:13;11.10;99.90
25188;DHT22;13141;50.414;8.050;2023-11-19T05:31:38;11.10;99.90
25188;DHT22;13141;50.414;8.050;2023-11-19T05:34:04;11.10;99.90
25188;DHT22;13141;50.414;8.050;2023-11-19T05:36:31;11.10;99.90
25188;DHT22;13141;50.414;8.050;2023-11-19T05:38:59;11.20;99.90
25188;DHT22;13141;50.414;8.050;2023-11-19T05:41:25;11.20;99.90
25188;DHT22;13141;50.414;8.050;2023-11-19T05:43:51;11.20;99.90
25188;DHT22;13141;50.414;8.050;2023-11-19T05:46:16;11.20;99.90
25188;DHT22;13141;50.414;8.050;2023-11-19T05:48:42;11.20;99.90
25188;DHT22;13141;50.414;8.050;2023-11-19T05:51:08;11.20;99.90
25188;DHT22;13141;50.414;8.050;2023-11-19T05:53:35;11.20;99.90
25188;DHT22;13141;50.414;8.050;2023-11-19T05:56:00;11.20;99.90
25188;DHT22;13141;50.414;8.050;2023-11-19T05:58:26;11.20;99.90
25188;DHT22;13141;50.414;8.050;2023-11-19T06:00:52;11.20;99.90
25188;DHT22;13141;50.414;8.050;2023-11-19T06:03:18;11.10;99.90
25188;DHT22;13141;50.414;8.050;2023-11-19T06:05:44;11.10;99.90
25188;DHT22;13141;50.414;8.050;2023-11-19T06:08:10;11.10;99.90
25188;DHT22;13141;50.414;8.050;2023-11-19T06:10:38;11.10;99.90
25188;DHT22;13141;50.414;8.050;2023-11-19T06:13:04;11.10;99.90
25188;DHT22;13141;50.414;8.050;2023-11-19T06:15:29;11.10;99.90
25188;DHT22;13141;50.414;8.050;2023-11-19T06:17:55;11.10;99.90
25188;DHT22;13141;50.414;8.050;2023-11-19T06:20:21;11.10;99.90
25188;DHT22;13141;50.414;8.050;2023-11-19T06:22:46;11.10;99.90
25188;DHT22;13141;50.414;8.050;2023-11-19T06:25:12;11.20;99.90
25188;DHT22;13141;50.414;8.050;2023-11-19T06:27:40;11.20;99.90
25188;DHT22;13141;50.414;8.050;2023-11-19T06:30:06;11.20;99.90
25188;DHT22;13141;50.414;8.050;2023-11-19T06:32:32;11.20;99.90
25188;DHT22;13141;50.414;8.050;2023-11-19T06:34:58;11.20;99.90
25188;DHT22;13141;50.414;8.050;2023-11-19T06:37:23;11.20;99.90
25188;DHT22;13141;50.414;8.050;2023-11-19T06:39:49;11.10;99.90
25188;DHT22;13141;50.414;8.050;2023-11-19T06:42:15;11.10;99.90
25188;DHT22;13141;50.414;8.050;2023-11-19T06:44:42;11.10;99.90
25188;DHT22;13141;50.414;8.050;2023-11-19T06:47:08;11.00;99.90
25188;DHT22;13141;50.414;8.050;2023-11-19T06:49:33;11.00;99.90
25188;DHT22;13141;50.414;8.050;2023-11-19T06:52:01;11.00;99.90
25188;DHT22;13141;50.414;8.050;2023-11-19T06:54:26;10.60;99.90
25188;DHT22;13141;50.414;8.050;2023-11-19T06:56:52;11.00;99.90
25188;DHT22;13141;50.414;8.050;2023-11-19T06:59:17;11.10;99.90
25188;DHT22;13141;50.414;8.050;2023-11-19T07:01:44;11.10;99.90
25188;DHT22;13141;50.414;8.050;2023-11-19T07:04:10;11.10;99.90
25188;DHT22;13141;50.414;8.050;2023-11-19T07:06:36;11.00;99.90
25188;DHT22;13141;50.414;8.050;2023-11-19T07:09:02;11.00;99.90
25188;DHT22;13141;50.414;8.050;2023-11-19T07:11:28;11.00;99.90
25188;DHT22;13141;50.414;8.050;2023-11-19T07:13:54;11.00;99.90
25188;DHT22;13141;50.414;8.050;2023-11-19T07:16:19;10.90;99.90
25188;DHT22;13141;50.414;8.050;2023-11-19T07:18:46;10.80;99.90
25188;DHT22;13141;50.414;8.050;2023-11-19T07:21:12;10.80;99.90
25188;DHT22;13141;50.414;8.050;2023-11-19T07:23:38;10.80;99.90
25188;DHT22;13141;50.414;8.050;2023-11-19T07:26:05;10.80;99.90
25188;DHT22;13141;50.414;8.050;2023-11-19T07:28:31;10.80;99.90
25188;DHT22;13141;50.414;8.050;2023-11-19T07:30:57;10.70;99.90
25188;DHT22;13141;50.414;8.050;2023-11-19T07:33:22;10.70;99.90
25188;DHT22;13141;50.414;8.050;2023-11-19T07:35:49;10.70;99.90
25188;DHT22;13141;50.414;8.050;2023-11-19T07:38:15;10.80;99.90
25188;DHT22;13141;50.414;8.050;2023-11-19T07:40:41;10.80;99.90
25188;DHT22;13141;50.414;8.050;2023-11-19T07:43:06;10.90;99.90
25188;DHT22;13141;50.414;8.050;2023-11-19T07:45:32;11.00;99.90
25188;DHT22;13141;50.414;8.050;2023-11-19T07:47:58;11.00;99.90
25188;DHT22;13141;50.414;8.050;2023-11-19T07:50:23;11.10;99.90
25188;DHT22;13141;50.414;8.050;2023-11-19T07:52:50;11.10;99.90
25188;DHT22;13141;50.414;8.050;2023-11-19T07:55:16;11.10;99.90
25188;DHT22;13141;50.414;8.050;2023-11-19T07:57:41;11.30;99.90
25188;DHT22;13141;50.414;8.050;2023-11-19T08:00:08;11.20;99.90
25188;DHT22;13141;50.414;8.050;2023-11-19T08:02:34;11.20;99.90
25188;DHT22;13141;50.414;8.050;2023-11-19T08:04:59;11.30;99.90
25188;DHT22;13141;50.414;8.050;2023-11-19T08:07:25;11.50;99.90
25188;DHT22;13141;50.414;8.050;2023-11-19T08:09:52;11.40;99.90
25188;DHT22;13141;50.414;8.050;2023-11-19T08:12:18;11.50;99.90
25188;DHT22;13141;50.414;8.050;2023-11-19T08:14:43;11.60;99.90
25188;DHT22;13141;50.414;8.050;2023-11-19T08:17:09;11.70;99.90
25188;DHT22;13141;50.414;8.050;2023-11-19T08:19:35;11.80;99.90
25188;DHT22;13141;50.414;8.050;2023-11-19T08:22:00;11.90;99.90
25188;DHT22;13141;50.414;8.050;2023-11-19T08:24:26;11.90;99.90
25188;DHT22;13141;50.414;8.050;2023-11-19T08:26:54;12.00;99.90
25188;DHT22;13141;50.414;8.050;2023-11-19T08:29:20;12.10;99.90
25188;DHT22;13141;50.414;8.050;2023-11-19T08:31:45;12.30;99.90
25188;DHT22;13141;50.414;8.050;2023-11-19T08:34:11;12.30;99.90
25188;DHT22;13141;50.414;8.050;2023-11-19T08:36:37;12.60;99.90
25188;DHT22;13141;50.414;8.050;2023-11-19T08:39:03;12.50;99.90
25188;DHT22;13141;50.414;8.050;2023-11-19T08:41:28;12.60;99.90
25188;DHT22;13141;50.414;8.050;2023-11-19T08:43:55;12.60;99.90
25188;DHT22;13141;50.414;8.050;2023-11-19T08:46:21;12.70;99.90
25188;DHT22;13141;50.414;8.050;2023-11-19T08:48:47;12.80;99.90
25188;DHT22;13141;50.414;8.050;2023-11-19T08:51:12;13.00;99.90
25188;DHT22;13141;50.414;8.050;2023-11-19T08:53:38;13.00;99.90
25188;DHT22;13141;50.414;8.050;2023-11-19T08:56:04;13.20;99.90
25188;DHT22;13141;50.414;8.050;2023-11-19T08:58:30;13.40;99.90
25188;DHT22;13141;50.414;8.050;2023-11-19T09:00:57;13.60;99.90
25188;DHT22;13141;50.414;8.050;2023-11-19T09:03:23;13.80;99.90
25188;DHT22;13141;50.414;8.050;2023-11-19T09:05:48;14.00;99.90
25188;DHT22;13141;50.414;8.050;2023-11-19T09:08:14;14.20;99.90
25188;DHT22;13141;50.414;8.050;2023-11-19T09:10:40;14.30;99.90
25188;DHT22;13141;50.414;8.050;2023-11-19T09:13:05;14.40;99.90
25188;DHT22;13141;50.414;8.050;2023-11-19T09:15:31;14.50;99.90
25188;DHT22;13141;50.414;8.050;2023-11-19T09:17:58;14.60;99.90
25188;DHT22;13141;50.414;8.050;2023-11-19T09:20:23;14.70;99.90
25188;DHT22;13141;50.414;8.050;2023-11-19T09:22:49;14.80;99.90
25188;DHT22;13141;50.414;8.050;2023-11-19T09:25:15;14.90;99.90
25188;DHT22;13141;50.414;8.050;2023-11-19T09:27:40;15.00;99.90
25188;DHT22;13141;50.414;8.050;2023-11-19T09:30:07;15.10;99.90
25188;DHT22;13141;50.414;8.050;2023-11-19T09:32:33;15.00;99.90
25188;DHT22;13141;50.414;8.050;2023-11-19T09:35:00;15.10;99.90
25188;DHT22;13141;50.414;8.050;2023-11-19T09:37:25;15.40;99.90
25188;DHT22;13141;50.414;8.050;2023-11-19T09:39:51;15.40;99.90
25188;DHT22;13141;50.414;8.050;2023-11-19T09:42:18;15.80;99.90
25188;DHT22;13141;50.414;8.050;2023-11-19T09:44:45;15.60;99.90
25188;DHT22;13141;50.414;8.050;2023-11-19T09:47:14;15.70;99.90
25188;DHT22;13141;50.414;8.050;2023-11-19T09:49:40;15.80;99.90
25188;DHT22;13141;50.414;8.050;2023-11-19T09:52:07;16.00;99.90
25188;DHT22;13141;50.414;8.050;2023-11-19T09:54:32;16.10;99.90
25188;DHT22;13141;50.414;8.050;2023-11-19T09:56:59;16.10;99.90
25188;DHT22;13141;50.414;8.050;2023-11-19T09:59:27;16.30;99.90
25188;DHT22;13141;50.414;8.050;2023-11-19T10:01:53;16.30;99.90
25188;DHT22;13141;50.414;8.050;2023-11-19T10:04:19;16.40;99.90
25188;DHT22;13141;50.414;8.050;2023-11-19T10:06:45;16.50;99.90
25188;DHT22;13141;50.414;8.050;2023-11-19T10:09:13;16.60;99.90
25188;DHT22;13141;50.414;8.050;2023-11-19T10:11:39;16.70;99.90
25188;DHT22;13141;50.414;8.050;2023-11-19T10:14:05;16.80;99.90
25188;DHT22;13141;50.414;8.050;2023-11-19T10:16:30;17.00;99.90
25188;DHT22;13141;50.414;8.050;2023-11-19T10:18:56;17.10;99.90
25188;DHT22;13141;50.414;8.050;2023-11-19T10:21:21;17.00;99.90
25188;DHT22;13141;50.414;8.050;2023-11-19T10:23:48;17.30;99.90
25188;DHT22;13141;50.414;8.050;2023-11-19T10:26:16;17.40;99.90
25188;DHT22;13141;50.414;8.050;2023-11-19T10:28:41;17.40;99.90
25188;DHT22;13141;50.414;8.050;2023-11-19T10:31:07;17.30;99.90
25188;DHT22;13141;50.414;8.050;2023-11-19T10:33:33;17.50;99.90
25188;DHT22;13141;50.414;8.050;2023-11-19T10:35:58;17.80;99.90
25188;DHT22;13141;50.414;8.050;2023-11-19T10:38:25;17.60;99.90
25188;DHT22;13141;50.414;8.050;2023-11-19T10:40:51;17.60;99.90
25188;DHT22;13141;50.414;8.050;2023-11-19T10:43:18;17.50;99.90
25188;DHT22;13141;50.414;8.050;2023-11-19T10:45:45;17.40;99.90
25188;DHT22;13141;50.414;8.050;2023-11-19T10:48:11;17.50;99.90
25188;DHT22;13141;50.414;8.050;2023-11-19T10:50:37;17.70;99.90
25188;DHT22;13141;50.414;8.050;2023-11-19T10:53:04;17.80;99.90
25188;DHT22;13141;50.414;8.050;2023-11-19T10:55:32;18.00;99.90
25188;DHT22;13141;50.414;8.050;2023-11-19T10:57:59;18.00;99.90
25188;DHT22;13141;50.414;8.050;2023-11-19T11:00:29;17.90;99.90
25188;DHT22;13141;50.414;8.050;2023-11-19T11:02:59;18.10;99.90
25188;DHT22;13141;50.414;8.050;2023-11-19T11:05:26;18.00;99.90
25188;DHT22;13141;50.414;8.050;2023-11-19T11:07:52;18.20;99.90
25188;DHT22;13141;50.414;8.050;2023-11-19T11:10:21;18.40;99.90
25188;DHT22;13141;50.414;8.050;2023-11-19T11:12:51;18.30;99.90
25188;DHT22;13141;50.414;8.050;2023-11-19T11:15:18;18.00;99.90
25188;DHT22;13141;50.414;8.050;2023-11-19T11:17:46;17.70;99.90
25188;DHT22;13141;50.414;8.050;2023-11-19T11:20:12;17.50;99.90
25188;DHT22;13141;50.414;8.050;2023-11-19T11:22:49;17.20;99.90
25188;DHT22;13141;50.414;8.050;2023-11-19T11:25:30;17.40;99.90
25188;DHT22;13141;50.414;8.050;2023-11-19T11:28:08;17.30;99.90
25188;DHT22;13141;50.414;8.050;2023-11-19T11:30:46;17.10;99.90
25188;DHT22;13141;50.414;8.050;2023-11-19T11:33:26;17.10;99.90
25188;DHT22;13141;50.414;8.050;2023-11-19T11:36:07;17.10;99.90
25188;DHT22;13141;50.414;8.050;2023-11-19T11:38:37;16.80;99.90
25188;DHT22;13141;50.414;8.050;2023-11-19T11:41:16;16.90;99.90
25188;DHT22;13141;50.414;8.050;2023-11-19T11:43:45;17.20;99.90
25188;DHT22;13141;50.414;8.050;2023-11-19T11:49:12;17.80;99.90
25188;DHT22;13141;50.414;8.050;2023-11-19T11:51:57;18.00;99.90
25188;DHT22;13141;50.414;8.050;2023-11-19T11:54:27;17.90;99.90
25188;DHT22;13141;50.414;8.050;2023-11-19T11:57:09;17.90;99.90
25188;DHT22;13141;50.414;8.050;2023-11-19T11:59:45;18.10;99.90
25188;DHT22;13141;50.414;8.050;2023-11-19T12:02:12;18.00;99.90
25188;DHT22;13141;50.414;8.050;2023-11-19T12:04:39;18.10;99.90
25188;DHT22;13141;50.414;8.050;2023-11-19T12:07:06;18.20;99.90
25188;DHT22;13141;50.414;8.050;2023-11-19T12:09:32;18.30;99.90
25188;DHT22;13141;50.414;8.050;2023-11-19T12:15:05;18.10;99.90
25188;DHT22;13141;50.414;8.050;2023-11-19T12:17:40;17.80;99.90
25188;DHT22;13141;50.414;8.050;2023-11-19T12:20:09;17.70;99.90
25188;DHT22;13141;50.414;8.050;2023-11-19T12:22:35;17.80;99.90
25188;DHT22;13141;50.414;8.050;2023-11-19T12:25:02;18.10;99.90
25188;DHT22;13141;50.414;8.050;2023-11-19T12:27:29;18.20;99.90
25188;DHT22;13141;50.414;8.050;2023-11-19T12:29:55;18.20;99.90
25188;DHT22;13141;50.414;8.050;2023-11-19T12:32:21;18.40;99.90
25188;DHT22;13141;50.414;8.050;2023-11-19T12:34:46;18.60;99.90
25188;DHT22;13141;50.414;8.050;2023-11-19T12:37:14;18.70;99.90
25188;DHT22;13141;50.414;8.050;2023-11-19T12:39:39;18.60;99.90
25188;DHT22;13141;50.414;8.050;2023-11-19T12:42:05;18.80;99.90
25188;DHT22;13141;50.414;8.050;2023-11-19T12:44:31;18.70;98.80
25188;DHT22;13141;50.414;8.050;2023-11-19T12:47:01;18.10;99.90
25188;DHT22;13141;50.414;8.050;2023-11-19T12:49:27;17.90;99.90
25188;DHT22;13141;50.414;8.050;2023-11-19T12:51:53;17.60;99.90
25188;DHT22;13141;50.414;8.050;2023-11-19T12:54:31;17.50;99.90
25188;DHT22;13141;50.414;8.050;2023-11-19T12:56:56;17.20;99.90
25188;DHT22;13141;50.414;8.050;2023-11-19T12:59:22;17.20;99.90
25188;DHT22;13141;50.414;8.050;2023-11-19T13:01:54;17.20;99.90
25188;DHT22;13141;50.414;8.050;2023-11-19T13:04:20;17.10;99.90
25188;DHT22;13141;50.414;8.050;2023-11-19T13:06:46;17.00;99.90
25188;DHT22;13141;50.414;8.050;2023-11-19T13:09:23;16.90;99.90
25188;DHT22;13141;50.414;8.050;2023-11-19T13:11:48;16.90;99.90
25188;DHT22;13141;50.414;8.050;2023-11-19T13:14:14;16.90;99.90
25188;DHT22;13141;50.414;8.050;2023-11-19T13:16:39;17.20;99.90
25188;DHT22;13141;50.414;8.050;2023-11-19T13:19:05;17.50;99.90
25188;DHT22;13141;50.414;8.050;2023-11-19T13:21:31;17.70;99.90
25188;DHT22;13141;50.414;8.050;2023-11-19T13:23:57;17.90;99.90
25188;DHT22;13141;50.414;8.050;2023-11-19T13:26:24;17.70;99.90
25188;DHT22;13141;50.414;8.050;2023-11-19T13:28:50;17.50;99.90
25188;DHT22;13141;50.414;8.050;2023-11-19T13:31:15;17.20;99.90
25188;DHT22;13141;50.414;8.050;2023-11-19T13:33:41;17.20;99.90
25188;DHT22;13141;50.414;8.050;2023-11-19T13:36:08;17.40;99.90
25188;DHT22;13141;50.414;8.050;2023-11-19T13:38:34;17.10;99.90
25188;DHT22;13141;50.414;8.050;2023-11-19T13:41:00;16.90;99.90
25188;DHT22;13141;50.414;8.050;2023-11-19T13:43:27;16.70;99.90
25188;DHT22;13141;50.414;8.050;2023-11-19T13:45:52;16.70;99.90
25188;DHT22;13141;50.414;8.050;2023-11-19T13:48:18;16.60;99.90
25188;DHT22;13141;50.414;8.050;2023-11-19T13:50:44;16.80;99.90
25188;DHT22;13141;50.414;8.050;2023-11-19T13:53:09;16.90;99.90
25188;DHT22;13141;50.414;8.050;2023-11-19T13:55:35;16.80;99.90
25188;DHT22;13141;50.414;8.050;2023-11-19T13:58:01;16.60;99.90
25188;DHT22;13141;50.414;8.050;2023-11-19T14:00:28;16.70;99.90
25188;DHT22;13141;50.414;8.050;2023-11-19T14:02:53;16.70;99.90
25188;DHT22;13141;50.414;8.050;2023-11-19T14:05:19;16.90;99.90
25188;DHT22;13141;50.414;8.050;2023-11-19T14:07:45;17.10;99.90
25188;DHT22;13141;50.414;8.050;2023-11-19T14:10:11;16.90;99.90
25188;DHT22;13141;50.414;8.050;2023-11-19T14:12:37;16.80;99.90
25188;DHT22;13141;50.414;8.050;2023-11-19T14:15:03;17.00;99.90
25188;DHT22;13141;50.414;8.050;2023-11-19T14:17:30;16.90;99.90
25188;DHT22;13141;50.414;8.050;2023-11-19T14:19:56;16.80;99.90
25188;DHT22;13141;50.414;8.050;2023-11-19T14:22:22;16.80;99.90
25188;DHT22;13141;50.414;8.050;2023-11-19T14:24:47;16.80;99.90
25188;DHT22;13141;50.414;8.050;2023-11-19T14:27:13;16.70;99.90
25188;DHT22;13141;50.414;8.050;2023-11-19T14:29:38;16.80;99.90
25188;DHT22;13141;50.414;8.050;2023-11-19T14:32:04;16.80;99.90
25188;DHT22;13141;50.414;8.050;2023-11-19T14:34:32;16.70;99.90
25188;DHT22;13141;50.414;8.050;2023-11-19T14:36:58;16.60;99.90
25188;DHT22;13141;50.414;8.050;2023-11-19T14:39:23;16.50;99.90
25188;DHT22;13141;50.414;8.050;2023-11-19T14:41:49;16.40;99.90
25188;DHT22;13141;50.414;8.050;2023-11-19T14:44:15;16.30;99.90
25188;DHT22;13141;50.414;8.050;2023-11-19T14:46:40;16.20;99.90
25188;DHT22;13141;50.414;8.050;2023-11-19T14:49:06;16.10;99.90
25188;DHT22;13141;50.414;8.050;2023-11-19T14:51:35;15.90;99.90
25188;DHT22;13141;50.414;8.050;2023-11-19T14:54:01;15.70;99.90
25188;DHT22;13141;50.414;8.050;2023-11-19T14:56:26;15.80;99.90
25188;DHT22;13141;50.414;8.050;2023-11-19T14:58:52;15.90;99.90
25188;DHT22;13141;50.414;8.050;2023-11-19T15:01:18;15.80;99.90
25188;DHT22;13141;50.414;8.050;2023-11-19T15:03:44;15.70;99.90
25188;DHT22;13141;50.414;8.050;2023-11-19T15:06:10;15.70;99.90
25188;DHT22;13141;50.414;8.050;2023-11-19T15:08:37;15.60;99.90
25188;DHT22;13141;50.414;8.050;2023-11-19T15:11:03;15.50;99.90
25188;DHT22;13141;50.414;8.050;2023-11-19T15:13:29;15.40;99.90
25188;DHT22;13141;50.414;8.050;2023-11-19T15:15:54;15.40;99.90
25188;DHT22;13141;50.414;8.050;2023-11-19T15:18:20;15.30;99.90
25188;DHT22;13141;50.414;8.050;2023-11-19T15:20:46;15.30;99.90
25188;DHT22;13141;50.414;8.050;2023-11-19T15:23:11;15.30;99.90
25188;DHT22;13141;50.414;8.050;2023-11-19T15:25:39;15.20;99.90
25188;DHT22;13141;50.414;8.050;2023-11-19T15:28:04;15.10;99.90
25188;DHT22;13141;50.414;8.050;2023-11-19T15:30:30;15.10;99.90
25188;DHT22;13141;50.414;8.050;2023-11-19T15:32:56;15.10;99.90
25188;DHT22;13141;50.414;8.050;2023-11-19T15:35:22;15.00;99.90